Time;durP1;ratioP1;P1;durP2;ratioP2;P2;SDS_P1;SDS_P2;PMS_P1;PMS_P2;Temp;Humidity;BMP_temperature;BMP_pressure;BME280_temperature;BME280_humidity;BME280_pressure;Samples;Min_cycle;Max_cycle;Signal;HPM_P1;HPM_P2
2021/12/02 00:00:38;;;;;;;1.83;1.45;;;19.60;99.90;;;;;;4193333;28;20265;-76
2021/12/02 00:02:40;;;;;;;1.70;1.23;;;19.60;99.90;;;;;;4196892;28;20640;-76
2021/12/02 00:04:44;;;;;;;2.28;1.30;;;19.50;99.90;;;;;;4197729;28;20207;-76
2021/12/02 00:06:46;;;;;;;1.92;1.30;;;19.60;99.90;;;;;;4197590;28;20254;-76
2021/12/02 00:08:52;;;;;;;2.63;1.40;;;19.50;99.90;;;;;;4197183;28;20640;-76
2021/12/02 00:10:54;;;;;;;3.13;1.67;;;19.50;99.90;;;;;;4196218;28;20211;-76
2021/12/02 00:12:57;;;;;;;2.95;1.27;;;19.50;99.90;;;;;;4191817;28;20257;-76
2021/12/02 00:15:05;;;;;;;1.70;1.30;;;19.60;99.90;;;;;;4197235;28;20265;-76
2021/12/02 00:17:13;;;;;;;2.25;1.20;;;19.50;99.90;;;;;;4197340;28;20214;-76
2021/12/02 00:21:37;;;;;;;2.53;1.30;;;19.40;99.90;;;;;;4197227;28;20655;-76
2021/12/02 00:23:51;;;;;;;2.95;1.52;;;19.40;99.90;;;;;;4196894;28;20215;-76
2021/12/02 00:25:56;;;;;;;2.42;1.20;;;19.40;99.90;;;;;;4197184;28;20211;-76
2021/12/02 00:28:00;;;;;;;2.63;1.20;;;19.40;99.90;;;;;;4197018;28;20269;-76
2021/12/02 00:30:04;;;;;;;2.47;1.35;;;19.40;99.90;;;;;;4196532;28;20623;-76
2021/12/02 00:32:10;;;;;;;3.13;1.55;;;19.40;99.90;;;;;;4196882;28;20285;-76
2021/12/02 00:34:13;;;;;;;1.88;1.30;;;19.40;99.90;;;;;;4196990;28;20265;-76
2021/12/02 00:36:17;;;;;;;2.35;1.60;;;19.40;99.90;;;;;;4195975;28;20257;-76
2021/12/02 00:38:20;;;;;;;2.22;1.20;;;19.40;99.90;;;;;;4196738;28;20617;-76
2021/12/02 00:40:24;;;;;;;2.85;1.40;;;19.40;99.90;;;;;;4196374;28;22071;-76
2021/12/02 00:42:27;;;;;;;2.55;1.30;;;19.40;99.90;;;;;;4196843;28;20273;-76
2021/12/02 00:44:32;;;;;;;1.60;1.05;;;19.30;99.90;;;;;;4196650;28;20214;-76
2021/12/02 00:46:35;;;;;;;4.60;1.30;;;19.30;99.90;;;;;;4192438;28;20280;-76
2021/12/02 00:48:39;;;;;;;4.28;1.40;;;19.40;99.90;;;;;;4186005;28;20219;-76
2021/12/02 00:50:44;;;;;;;2.10;1.33;;;19.30;99.90;;;;;;4178285;28;20700;-76
2021/12/02 00:52:50;;;;;;;2.10;1.38;;;19.30;99.90;;;;;;4180206;28;20297;-76
2021/12/02 00:54:55;;;;;;;2.72;1.40;;;19.30;99.90;;;;;;4180697;28;20649;-76
2021/12/02 00:57:03;;;;;;;3.25;1.55;;;19.30;99.90;;;;;;4180388;28;20255;-76
2021/12/02 00:59:08;;;;;;;2.92;1.48;;;19.30;99.90;;;;;;4180526;28;20212;-76
2021/12/02 01:01:12;;;;;;;1.92;1.50;;;19.30;99.90;;;;;;4178901;28;20212;-76
2021/12/02 01:03:15;;;;;;;2.38;1.70;;;19.30;99.90;;;;;;4180317;28;20234;-76
2021/12/02 01:05:19;;;;;;;3.55;1.48;;;19.30;99.90;;;;;;4179720;28;20266;-76
2021/12/02 01:07:22;;;;;;;2.25;1.30;;;19.30;99.90;;;;;;4180337;28;20262;-76
2021/12/02 01:09:25;;;;;;;3.15;1.50;;;19.30;99.90;;;;;;4180514;28;20620;-76
2021/12/02 01:11:28;;;;;;;2.50;1.23;;;19.30;99.90;;;;;;4179934;28;20338;-76
2021/12/02 01:13:32;;;;;;;2.15;1.50;;;19.30;99.90;;;;;;4180113;28;20220;-76
2021/12/02 01:15:35;;;;;;;2.45;1.30;;;19.30;99.90;;;;;;4179848;28;20216;-76
2021/12/02 01:17:37;;;;;;;2.80;1.58;;;19.30;99.90;;;;;;4179691;28;20257;-76
2021/12/02 01:19:40;;;;;;;3.00;1.48;;;19.20;99.90;;;;;;4180147;28;20212;-76
2021/12/02 01:21:44;;;;;;;3.65;1.48;;;19.20;99.90;;;;;;4180255;28;20212;-76
2021/12/02 01:23:51;;;;;;;1.95;1.20;;;19.20;99.90;;;;;;4179805;28;20215;-76
2021/12/02 01:25:59;;;;;;;2.75;1.60;;;19.20;99.90;;;;;;4180005;28;20269;-76
2021/12/02 01:28:02;;;;;;;2.50;1.50;;;19.20;99.90;;;;;;4179884;28;20227;-76
2021/12/02 01:30:07;;;;;;;2.67;1.40;;;19.20;99.90;;;;;;4180104;28;20215;-76
2021/12/02 01:32:11;;;;;;;2.40;1.45;;;19.20;99.90;;;;;;4179577;28;20247;-76
2021/12/02 01:34:14;;;;;;;3.20;1.40;;;19.20;99.90;;;;;;4179873;28;20212;-76
2021/12/02 01:36:18;;;;;;;2.67;1.58;;;19.10;99.90;;;;;;4179645;28;20227;-76
2021/12/02 01:38:23;;;;;;;2.67;1.17;;;19.20;99.90;;;;;;4178693;28;20261;-76
2021/12/02 01:40:27;;;;;;;3.13;1.77;;;19.10;99.90;;;;;;4178467;28;20258;-76
2021/12/02 01:42:37;;;;;;;4.38;1.60;;;19.10;99.90;;;;;;4179909;28;20223;-76
2021/12/02 01:44:42;;;;;;;3.35;1.60;;;19.10;99.90;;;;;;4176195;28;20224;-76
2021/12/02 01:46:48;;;;;;;2.80;1.40;;;19.10;99.90;;;;;;4177866;28;20215;-76
2021/12/02 01:49:00;;;;;;;3.33;1.63;;;19.10;99.90;;;;;;4176001;28;20604;-76
2021/12/02 01:51:05;;;;;;;3.58;1.52;;;19.10;99.90;;;;;;4189665;28;20292;-76
2021/12/02 01:53:08;;;;;;;3.35;1.55;;;19.10;99.90;;;;;;4196157;28;20709;-76
2021/12/02 01:55:14;;;;;;;3.20;1.75;;;19.10;99.90;;;;;;4193603;28;20212;-76
2021/12/02 01:57:29;;;;;;;3.67;1.77;;;19.10;99.90;;;;;;4196404;28;20211;-76
2021/12/02 01:59:34;;;;;;;3.38;1.45;;;19.10;99.90;;;;;;4194537;28;20260;-76
2021/12/02 02:01:38;;;;;;;2.30;1.40;;;19.10;99.90;;;;;;4191129;28;20215;-76
2021/12/02 02:03:44;;;;;;;2.85;1.73;;;19.10;99.90;;;;;;4196125;28;20264;-76
2021/12/02 02:05:57;;;;;;;3.33;1.50;;;19.10;99.90;;;;;;4193291;28;20737;-76
2021/12/02 02:08:03;;;;;;;3.28;1.65;;;19.00;99.90;;;;;;4188529;28;20226;-76
2021/12/02 02:10:07;;;;;;;2.72;1.48;;;19.10;99.90;;;;;;4193217;28;20220;-76
2021/12/02 02:12:12;;;;;;;3.15;1.60;;;19.10;99.90;;;;;;4185660;28;20675;-76
2021/12/02 02:14:15;;;;;;;2.85;1.50;;;19.00;99.90;;;;;;4194108;28;20269;-76
2021/12/02 02:16:18;;;;;;;2.80;1.50;;;19.00;99.90;;;;;;4192604;28;20215;-76
2021/12/02 02:18:21;;;;;;;3.92;1.67;;;19.00;99.90;;;;;;4190395;28;20214;-76
2021/12/02 02:20:36;;;;;;;3.45;1.45;;;19.00;99.90;;;;;;4193130;28;20223;-76
2021/12/02 02:22:40;;;;;;;3.38;1.48;;;19.00;99.90;;;;;;4193542;28;20257;-76
2021/12/02 02:24:43;;;;;;;3.75;1.65;;;19.00;99.90;;;;;;4193229;28;20796;-76
2021/12/02 02:26:46;;;;;;;2.90;1.63;;;19.00;99.90;;;;;;4194421;28;20264;-76
2021/12/02 02:28:48;;;;;;;3.17;1.50;;;19.00;99.90;;;;;;4192215;28;20652;-76
2021/12/02 02:30:51;;;;;;;3.92;1.92;;;19.00;99.90;;;;;;4192697;28;20211;-76
2021/12/02 02:32:54;;;;;;;2.53;1.40;;;19.00;99.90;;;;;;4184140;28;20632;-76
2021/12/02 02:34:56;;;;;;;3.45;1.40;;;19.00;99.90;;;;;;4182144;28;20250;-76
2021/12/02 02:37:03;;;;;;;2.70;1.35;;;18.90;99.90;;;;;;4188234;28;20617;-76
2021/12/02 02:39:06;;;;;;;3.40;1.30;;;18.90;99.90;;;;;;4183257;28;20220;-76
2021/12/02 02:41:10;;;;;;;2.50;1.50;;;18.90;99.90;;;;;;4188393;28;20215;-77
2021/12/02 02:43:20;;;;;;;4.18;1.52;;;19.00;99.90;;;;;;4191535;28;20219;-76
2021/12/02 02:45:23;;;;;;;3.08;1.70;;;18.90;99.90;;;;;;4196700;28;20219;-76
2021/12/02 02:47:27;;;;;;;2.33;1.50;;;18.90;99.90;;;;;;4193516;28;20211;-76
2021/12/02 02:49:29;;;;;;;3.65;1.48;;;18.90;99.90;;;;;;4198286;28;20253;-76
2021/12/02 02:51:33;;;;;;;3.78;1.50;;;18.90;99.90;;;;;;4182032;28;20290;-76
2021/12/02 02:53:37;;;;;;;3.78;1.80;;;18.90;99.90;;;;;;4181715;28;20247;-76
2021/12/02 02:55:42;;;;;;;3.28;1.48;;;18.90;99.90;;;;;;4182278;28;20273;-76
2021/12/02 02:57:53;;;;;;;3.60;1.33;;;18.90;99.90;;;;;;4181930;28;20219;-76
2021/12/02 03:00:03;;;;;;;3.20;1.35;;;18.90;99.90;;;;;;4181684;28;20215;-76
2021/12/02 03:02:16;;;;;;;3.83;1.60;;;18.90;99.90;;;;;;4181867;28;20664;-76
2021/12/02 03:04:31;;;;;;;3.53;1.40;;;18.90;99.90;;;;;;4181800;28;20219;-75
2021/12/02 03:06:40;;;;;;;5.43;1.67;;;18.90;99.90;;;;;;4180347;28;20282;-76
2021/12/02 03:08:50;;;;;;;4.65;1.60;;;18.90;99.90;;;;;;4182021;28;20612;-76
2021/12/02 03:10:56;;;;;;;3.17;1.45;;;18.80;99.90;;;;;;4181980;28;20211;-76
2021/12/02 03:13:10;;;;;;;2.78;1.55;;;18.90;99.90;;;;;;4181771;28;20285;-76
2021/12/02 03:17:34;;;;;;;3.15;1.40;;;18.90;99.90;;;;;;4181933;28;20203;-76
2021/12/02 03:19:42;;;;;;;2.55;1.38;;;18.80;99.90;;;;;;4181576;28;20241;-76
2021/12/02 03:21:44;;;;;;;2.65;1.40;;;18.80;99.90;;;;;;4181880;28;20220;-76
2021/12/02 03:23:54;;;;;;;2.47;1.30;;;18.80;99.90;;;;;;4181851;28;20278;-76
2021/12/02 03:25:56;;;;;;;3.25;1.25;;;18.80;99.90;;;;;;4181586;28;20265;-76
2021/12/02 03:27:58;;;;;;;2.67;1.40;;;18.80;99.90;;;;;;4181745;28;20216;-76
2021/12/02 03:30:01;;;;;;;3.95;1.70;;;18.80;99.90;;;;;;4181785;28;20289;-76
2021/12/02 03:32:04;;;;;;;4.30;1.48;;;18.80;99.90;;;;;;4181552;28;20289;-76
2021/12/02 03:34:07;;;;;;;3.58;1.33;;;18.70;99.90;;;;;;4181425;28;20235;-76
2021/12/02 03:36:10;;;;;;;2.90;1.25;;;18.70;99.90;;;;;;4179056;28;20725;-76
2021/12/02 03:38:12;;;;;;;3.05;1.58;;;18.80;99.90;;;;;;4181232;28;20223;-76
2021/12/02 03:40:16;;;;;;;3.70;1.50;;;18.80;99.90;;;;;;4181311;28;20219;-76
2021/12/02 03:42:19;;;;;;;3.45;1.50;;;18.80;99.90;;;;;;4181129;28;20216;-76
2021/12/02 03:44:21;;;;;;;3.65;1.42;;;18.80;99.90;;;;;;4180616;28;20261;-76
2021/12/02 03:46:25;;;;;;;3.22;1.50;;;18.80;99.90;;;;;;4172823;28;20228;-76
2021/12/02 03:48:27;;;;;;;3.00;1.63;;;18.80;99.90;;;;;;4180951;28;20220;-77
2021/12/02 03:50:29;;;;;;;2.90;1.33;;;18.70;99.90;;;;;;4186381;28;20284;-76
2021/12/02 03:52:32;;;;;;;3.90;1.60;;;18.70;99.90;;;;;;4197470;28;20218;-76
2021/12/02 03:54:34;;;;;;;3.78;1.50;;;18.70;99.90;;;;;;4197655;28;20288;-76
2021/12/02 03:56:38;;;;;;;3.20;1.40;;;18.80;99.90;;;;;;4197757;28;20271;-76
2021/12/02 03:58:43;;;;;;;2.97;1.52;;;18.70;99.90;;;;;;4197436;28;20219;-76
2021/12/02 04:00:45;;;;;;;3.03;1.40;;;18.70;99.90;;;;;;4197224;28;20257;-76
2021/12/02 04:02:47;;;;;;;2.63;1.40;;;18.70;99.90;;;;;;4197655;28;20219;-76
2021/12/02 04:04:50;;;;;;;2.20;1.27;;;18.70;99.90;;;;;;4197445;28;20207;-76
2021/12/02 04:06:52;;;;;;;2.33;1.42;;;18.70;99.90;;;;;;4197719;28;20252;-76
2021/12/02 04:08:58;;;;;;;2.53;1.30;;;18.70;99.90;;;;;;4197094;28;20208;-76
2021/12/02 04:11:13;;;;;;;3.10;1.40;;;18.70;99.90;;;;;;4197627;28;20273;-76
2021/12/02 04:13:21;;;;;;;2.50;1.35;;;18.70;99.90;;;;;;4197234;28;20685;-76
2021/12/02 04:15:26;;;;;;;4.47;1.50;;;18.70;99.90;;;;;;4197338;28;20219;-76
2021/12/02 04:17:42;;;;;;;2.47;1.52;;;18.70;99.90;;;;;;4196877;28;20268;-76
2021/12/02 04:19:44;;;;;;;2.15;1.10;;;18.60;99.90;;;;;;4198699;28;20280;-76
2021/12/02 04:21:46;;;;;;;2.20;1.25;;;18.60;99.90;;;;;;4197035;28;20219;-76
2021/12/02 04:23:49;;;;;;;2.88;1.40;;;18.60;99.90;;;;;;4192784;28;20215;-76
2021/12/02 04:25:51;;;;;;;2.67;1.38;;;18.60;99.90;;;;;;4195834;28;20655;-76
2021/12/02 04:27:54;;;;;;;2.58;1.42;;;18.60;99.90;;;;;;4197649;28;20260;-76
2021/12/02 04:29:58;;;;;;;2.83;1.30;;;18.60;99.90;;;;;;4196996;28;20845;-76
2021/12/02 04:32:00;;;;;;;2.08;1.20;;;18.60;99.90;;;;;;4197053;28;20624;-76
2021/12/02 04:34:02;;;;;;;2.55;1.20;;;18.60;99.90;;;;;;4196404;28;20234;-76
2021/12/02 04:36:05;;;;;;;2.72;1.30;;;18.60;99.90;;;;;;4197064;28;20272;-76
2021/12/02 04:38:07;;;;;;;3.40;1.20;;;18.60;99.90;;;;;;4196989;28;20207;-76
2021/12/02 04:40:11;;;;;;;2.90;1.38;;;18.60;99.90;;;;;;4196800;28;20272;-76
2021/12/02 04:42:13;;;;;;;3.42;1.50;;;18.60;99.90;;;;;;4196796;28;20215;-76
2021/12/02 04:44:18;;;;;;;3.03;1.50;;;18.60;99.90;;;;;;4196893;28;20246;-76
2021/12/02 04:46:22;;;;;;;3.30;1.48;;;18.60;99.90;;;;;;4196950;28;20269;-76
2021/12/02 04:48:24;;;;;;;2.50;1.40;;;18.60;99.90;;;;;;4197038;28;20223;-76
2021/12/02 04:50:27;;;;;;;2.90;1.48;;;18.60;99.90;;;;;;4196476;28;20643;-76
2021/12/02 04:52:29;;;;;;;2.88;1.17;;;18.60;99.90;;;;;;4196201;28;20231;-76
2021/12/02 04:54:31;;;;;;;2.67;1.15;;;18.50;99.90;;;;;;4196719;28;20361;-76
2021/12/02 04:56:34;;;;;;;2.60;1.02;;;18.50;99.90;;;;;;4196608;28;20223;-76
2021/12/02 04:58:36;;;;;;;2.92;1.27;;;18.50;99.90;;;;;;4196863;28;20214;-76
2021/12/02 05:00:38;;;;;;;2.85;1.50;;;18.50;99.90;;;;;;4197082;28;20640;-76
2021/12/02 05:02:42;;;;;;;2.95;1.20;;;18.50;99.90;;;;;;4194320;28;20659;-76
2021/12/02 05:04:45;;;;;;;2.17;1.20;;;18.50;99.90;;;;;;4196736;28;20676;-76
2021/12/02 05:06:47;;;;;;;2.95;1.40;;;18.50;99.90;;;;;;4196070;28;20216;-76
2021/12/02 05:08:49;;;;;;;2.05;1.00;;;18.50;99.90;;;;;;4196212;28;20211;-76
2021/12/02 05:10:51;;;;;;;2.53;1.10;;;18.50;99.90;;;;;;4196892;28;20883;-76
2021/12/02 05:12:54;;;;;;;2.20;1.20;;;18.50;99.90;;;;;;4196726;28;20555;-76
2021/12/02 05:14:56;;;;;;;4.00;1.65;;;18.50;99.90;;;;;;4196311;28;20276;-76
2021/12/02 05:16:58;;;;;;;4.15;1.63;;;18.50;99.90;;;;;;4196321;28;20211;-76
2021/12/02 05:19:02;;;;;;;2.95;1.27;;;18.50;99.90;;;;;;4196321;28;20207;-76
2021/12/02 05:21:04;;;;;;;2.25;1.27;;;18.50;99.90;;;;;;4196698;28;20253;-76
2021/12/02 05:23:06;;;;;;;2.90;1.23;;;18.50;99.90;;;;;;4196116;28;20652;-76
2021/12/02 05:25:10;;;;;;;3.70;1.38;;;18.50;99.90;;;;;;4194556;28;20253;-76
2021/12/02 05:27:14;;;;;;;3.15;1.20;;;18.40;99.90;;;;;;4196305;28;20223;-76
2021/12/02 05:29:16;;;;;;;2.55;1.27;;;18.40;99.90;;;;;;4196290;28;20261;-76
2021/12/02 05:31:19;;;;;;;2.58;1.35;;;18.40;99.90;;;;;;4196404;28;20211;-76
2021/12/02 05:33:21;;;;;;;2.78;1.20;;;18.40;99.90;;;;;;4196279;28;20272;-76
2021/12/02 05:35:25;;;;;;;2.72;1.40;;;18.40;99.90;;;;;;4196451;28;20238;-76
2021/12/02 05:37:27;;;;;;;2.67;1.38;;;18.40;99.90;;;;;;4195911;28;21020;-76
2021/12/02 05:39:30;;;;;;;2.30;1.30;;;18.40;99.90;;;;;;4196114;28;20616;-76
2021/12/02 05:41:32;;;;;;;3.28;1.20;;;18.30;99.90;;;;;;4194281;28;20624;-76
2021/12/02 05:43:34;;;;;;;2.05;1.15;;;18.30;99.90;;;;;;4195741;28;20284;-76
2021/12/02 05:45:37;;;;;;;3.63;1.33;;;18.30;99.90;;;;;;4196158;28;20207;-76
2021/12/02 05:47:39;;;;;;;2.63;1.30;;;18.30;99.90;;;;;;4195563;28;20659;-76
2021/12/02 05:49:42;;;;;;;2.47;1.10;;;18.30;99.90;;;;;;4196316;28;20264;-76
2021/12/02 05:51:46;;;;;;;2.30;1.08;;;18.30;99.90;;;;;;4195525;28;20369;-76
2021/12/02 05:53:48;;;;;;;3.28;1.10;;;18.30;99.90;;;;;;4196376;28;20253;-76
2021/12/02 05:55:50;;;;;;;2.45;1.08;;;18.30;99.90;;;;;;4196349;28;20760;-76
2021/12/02 05:57:53;;;;;;;2.88;1.33;;;18.20;99.90;;;;;;4196335;28;20273;-76
2021/12/02 05:59:55;;;;;;;2.67;1.25;;;18.20;99.90;;;;;;4195744;28;20230;-76
2021/12/02 06:01:58;;;;;;;3.00;0.95;;;18.30;99.90;;;;;;4195910;28;20210;-76
2021/12/02 06:04:01;;;;;;;2.53;1.02;;;18.30;99.90;;;;;;4196408;28;20253;-76
2021/12/02 06:06:04;;;;;;;3.15;1.20;;;18.30;99.90;;;;;;4196362;28;20211;-76
2021/12/02 06:08:07;;;;;;;2.35;1.13;;;18.30;99.90;;;;;;4196156;28;20218;-76
2021/12/02 06:10:10;;;;;;;2.90;1.30;;;18.40;99.90;;;;;;4196067;28;20236;-76
2021/12/02 06:12:13;;;;;;;2.15;1.02;;;18.30;99.90;;;;;;4191140;28;20219;-76
2021/12/02 06:14:15;;;;;;;2.03;1.02;;;18.30;99.90;;;;;;4195824;28;20720;-76
2021/12/02 06:16:17;;;;;;;2.65;1.10;;;18.30;99.90;;;;;;4195501;28;20717;-76
2021/12/02 06:18:20;;;;;;;3.05;1.25;;;18.40;99.90;;;;;;4198200;28;20620;-76
2021/12/02 06:20:22;;;;;;;2.05;1.00;;;18.30;99.90;;;;;;4197728;28;20214;-76
2021/12/02 06:22:24;;;;;;;2.35;1.05;;;18.40;99.90;;;;;;4198905;28;20224;-76
2021/12/02 06:24:31;;;;;;;2.28;1.30;;;18.40;99.90;;;;;;4199151;28;20211;-76
2021/12/02 06:26:34;;;;;;;2.63;0.90;;;18.40;99.90;;;;;;4198973;28;20268;-76
2021/12/02 06:28:37;;;;;;;2.85;1.25;;;18.40;99.90;;;;;;4199329;28;20663;-76
2021/12/02 06:30:39;;;;;;;2.40;1.10;;;18.40;99.90;;;;;;4199543;28;20265;-76
2021/12/02 06:32:42;;;;;;;1.55;0.82;;;18.50;99.90;;;;;;4198383;28;20257;-76
2021/12/02 06:34:45;;;;;;;2.55;1.33;;;18.50;99.90;;;;;;4199408;28;20235;-76
2021/12/02 06:36:47;;;;;;;3.22;1.10;;;18.50;99.90;;;;;;4199371;28;20215;-76
2021/12/02 06:38:49;;;;;;;2.05;1.00;;;18.60;99.90;;;;;;4199073;28;20208;-76
2021/12/02 06:40:53;;;;;;;2.22;1.10;;;18.50;99.90;;;;;;4199193;28;20215;-76
2021/12/02 06:42:55;;;;;;;2.50;1.40;;;18.50;99.90;;;;;;4198857;28;20644;-76
2021/12/02 06:44:58;;;;;;;2.40;1.35;;;18.50;99.90;;;;;;4198549;28;20211;-76
2021/12/02 06:47:00;;;;;;;2.45;1.42;;;18.50;99.90;;;;;;4198948;28;20664;-76
2021/12/02 06:49:02;;;;;;;3.80;1.40;;;18.50;99.90;;;;;;4199232;28;20211;-76
2021/12/02 06:51:06;;;;;;;2.15;1.45;;;18.60;99.90;;;;;;4198109;28;20239;-76
2021/12/02 06:53:08;;;;;;;3.67;1.20;;;18.60;99.90;;;;;;4198353;28;20220;-76
2021/12/02 06:55:11;;;;;;;3.10;1.70;;;18.60;99.90;;;;;;4198573;28;20243;-76
2021/12/02 06:57:15;;;;;;;4.80;1.50;;;18.60;99.90;;;;;;4198663;28;20257;-76
2021/12/02 06:59:18;;;;;;;3.17;1.48;;;18.60;99.90;;;;;;4198845;28;20245;-76
2021/12/02 07:01:20;;;;;;;2.63;1.30;;;18.60;99.90;;;;;;4198958;28;20317;-76
2021/12/02 07:03:23;;;;;;;3.53;1.80;;;18.60;99.90;;;;;;4198752;28;20211;-76
2021/12/02 07:05:25;;;;;;;2.42;1.33;;;18.60;99.90;;;;;;4198792;28;20219;-76
2021/12/02 07:07:31;;;;;;;2.53;1.50;;;18.60;99.90;;;;;;4196933;28;20223;-76
2021/12/02 07:09:33;;;;;;;2.72;1.50;;;18.70;99.90;;;;;;4198454;28;20220;-76
2021/12/02 07:11:36;;;;;;;2.78;1.38;;;18.60;99.90;;;;;;4195773;28;20215;-76
2021/12/02 07:13:42;;;;;;;2.60;1.33;;;18.70;99.90;;;;;;4196335;28;20740;-76
2021/12/02 07:15:49;;;;;;;2.80;1.20;;;18.70;99.90;;;;;;4198707;28;20647;-76
2021/12/02 07:17:55;;;;;;;2.33;1.30;;;18.70;99.90;;;;;;4195387;28;20210;-76
2021/12/02 07:19:58;;;;;;;3.10;1.23;;;18.70;99.90;;;;;;4197337;28;20268;-76
2021/12/02 07:22:00;;;;;;;2.95;1.60;;;18.70;99.90;;;;;;4198264;28;20272;-76
2021/12/02 07:24:02;;;;;;;3.67;1.52;;;18.70;99.90;;;;;;4198682;28;20215;-77
2021/12/02 07:26:06;;;;;;;3.30;1.52;;;18.70;99.90;;;;;;4198603;28;20633;-76
2021/12/02 07:28:10;;;;;;;4.05;1.60;;;18.70;99.90;;;;;;4198109;28;20606;-76
2021/12/02 07:30:14;;;;;;;2.58;1.58;;;18.70;99.90;;;;;;4197198;28;20214;-76
2021/12/02 07:32:16;;;;;;;3.10;1.50;;;18.70;99.90;;;;;;4198546;28;20272;-76
2021/12/02 07:34:20;;;;;;;2.85;1.27;;;18.70;99.90;;;;;;4198084;28;20223;-76
2021/12/02 07:36:23;;;;;;;3.28;1.60;;;18.70;99.90;;;;;;4198159;28;20242;-76
2021/12/02 07:38:26;;;;;;;4.10;1.60;;;18.70;99.90;;;;;;4196510;28;20617;-76
2021/12/02 07:40:33;;;;;;;1.90;1.23;;;18.70;99.90;;;;;;4198382;28;20218;-76
2021/12/02 07:42:35;;;;;;;3.22;1.30;;;18.70;99.90;;;;;;4198235;28;20269;-76
2021/12/02 07:44:38;;;;;;;2.67;1.40;;;18.70;99.90;;;;;;4197591;28;20215;-76
2021/12/02 07:46:41;;;;;;;3.17;1.40;;;18.70;99.90;;;;;;4197857;28;20273;-76
2021/12/02 07:48:44;;;;;;;2.47;1.10;;;18.70;99.90;;;;;;4198202;28;20211;-76
2021/12/02 07:50:46;;;;;;;3.47;1.40;;;18.70;99.90;;;;;;4197697;28;20635;-76
2021/12/02 07:52:51;;;;;;;2.95;1.65;;;18.70;99.90;;;;;;4197913;28;20689;-76
2021/12/02 07:54:55;;;;;;;2.38;1.05;;;18.70;99.90;;;;;;4197405;28;20261;-76
2021/12/02 07:56:58;;;;;;;2.72;1.30;;;18.70;99.90;;;;;;4197578;28;20226;-77
2021/12/02 07:59:01;;;;;;;2.65;1.40;;;18.70;99.90;;;;;;4196958;28;20211;-77
2021/12/02 08:01:03;;;;;;;2.97;1.20;;;18.60;99.90;;;;;;4187898;28;20245;-77
2021/12/02 08:03:10;;;;;;;5.32;1.52;;;18.70;99.90;;;;;;4198823;28;20280;-78
2021/12/02 08:05:13;;;;;;;2.72;1.27;;;18.60;99.90;;;;;;4196608;28;20226;-77
2021/12/02 08:07:15;;;;;;;2.70;1.45;;;18.60;99.90;;;;;;4191184;28;20211;-77
2021/12/02 08:09:17;;;;;;;4.57;1.38;;;18.60;99.90;;;;;;4192034;28;20373;-79
2021/12/02 08:11:20;;;;;;;6.15;1.13;;;18.70;99.90;;;;;;4189211;28;20223;-78
2021/12/02 08:13:28;;;;;;;3.08;1.30;;;18.70;99.90;;;;;;4191486;28;20617;-81
2021/12/02 08:15:31;;;;;;;5.07;1.25;;;18.80;99.90;;;;;;4191892;28;20290;-77
2021/12/02 08:17:34;;;;;;;2.78;1.30;;;19.00;99.90;;;;;;4188303;28;20295;-80
2021/12/02 08:19:38;;;;;;;5.53;1.20;;;19.10;99.90;;;;;;4190919;28;20215;-77
2021/12/02 08:21:40;;;;;;;2.03;1.25;;;19.20;99.90;;;;;;4192478;28;20226;-77
2021/12/02 08:23:43;;;;;;;5.28;1.70;;;19.30;99.90;;;;;;4189160;28;20672;-78
2021/12/02 08:25:45;;;;;;;9.90;2.15;;;19.40;99.90;;;;;;4178465;28;20237;-78
2021/12/02 08:27:48;;;;;;;4.60;1.45;;;19.50;99.90;;;;;;4189571;28;20273;-76
2021/12/02 08:29:51;;;;;;;3.03;1.60;;;19.50;99.90;;;;;;4190813;28;20272;-77
2021/12/02 08:31:53;;;;;;;6.45;1.90;;;19.60;99.90;;;;;;4188180;28;20265;-77
2021/12/02 08:33:56;;;;;;;2.95;1.90;;;19.60;99.90;;;;;;4191162;28;20215;-79
2021/12/02 08:35:59;;;;;;;4.13;1.90;;;19.70;99.90;;;;;;4190969;28;20243;-78
2021/12/02 08:38:07;;;;;;;5.10;2.08;;;19.60;99.90;;;;;;4193099;28;20260;-76
2021/12/02 08:40:11;;;;;;;1.98;1.65;;;19.70;99.90;;;;;;4190616;28;20205;-78
2021/12/02 08:42:15;;;;;;;2.50;1.40;;;19.80;99.90;;;;;;4187924;28;20261;-78
2021/12/02 08:44:18;;;;;;;3.65;1.75;;;19.90;99.90;;;;;;4193607;28;20545;-78
2021/12/02 08:46:21;;;;;;;3.53;2.15;;;19.90;99.90;;;;;;4191635;28;20253;-78
2021/12/02 08:48:23;;;;;;;2.78;1.40;;;19.90;99.90;;;;;;4188481;28;20619;-79
2021/12/02 08:50:26;;;;;;;4.07;1.77;;;19.90;99.90;;;;;;4189663;28;20239;-77
2021/12/02 08:52:30;;;;;;;4.63;1.73;;;19.90;99.90;;;;;;4187217;28;20272;-79
2021/12/02 08:54:33;;;;;;;3.50;1.27;;;19.90;99.90;;;;;;4194274;28;20257;-78
2021/12/02 08:56:35;;;;;;;2.05;1.40;;;19.90;99.90;;;;;;4188054;28;20239;-77
2021/12/02 08:58:38;;;;;;;3.10;1.70;;;20.10;99.90;;;;;;4187488;28;20660;-77
2021/12/02 09:00:41;;;;;;;2.45;1.48;;;20.10;99.90;;;;;;4189383;28;20253;-76
2021/12/02 09:02:43;;;;;;;4.65;1.85;;;20.10;99.90;;;;;;4186150;28;20269;-76
2021/12/02 09:04:45;;;;;;;2.97;1.40;;;20.10;99.90;;;;;;4192698;28;20215;-75
2021/12/02 09:06:47;;;;;;;5.28;1.73;;;20.10;99.90;;;;;;4185428;28;20384;-77
2021/12/02 09:08:54;;;;;;;1.67;1.25;;;20.10;99.90;;;;;;4188904;28;20215;-76
2021/12/02 09:10:59;;;;;;;2.03;1.25;;;20.20;99.90;;;;;;4191698;28;20223;-77
2021/12/02 09:13:07;;;;;;;3.17;1.60;;;20.20;99.90;;;;;;4190170;28;20219;-77
2021/12/02 09:15:10;;;;;;;2.42;1.50;;;20.10;99.90;;;;;;4183918;28;20214;-77
2021/12/02 09:17:12;;;;;;;4.05;1.63;;;20.20;99.90;;;;;;4191691;28;20243;-77
2021/12/02 09:19:15;;;;;;;3.20;1.55;;;20.30;99.90;;;;;;4191346;28;20261;-77
2021/12/02 09:21:17;;;;;;;2.50;1.65;;;20.40;99.90;;;;;;4191904;28;20336;-76
2021/12/02 09:23:19;;;;;;;4.00;1.77;;;20.60;99.90;;;;;;4188926;28;20320;-76
2021/12/02 09:25:23;;;;;;;5.28;1.80;;;20.70;99.90;;;;;;4186102;28;20219;-76
2021/12/02 09:27:25;;;;;;;2.85;1.73;;;20.80;99.90;;;;;;4191193;28;20203;-76
2021/12/02 09:29:28;;;;;;;6.03;2.10;;;20.90;99.90;;;;;;4188148;28;20216;-76
2021/12/02 09:31:31;;;;;;;5.32;1.85;;;21.00;99.90;;;;;;4187665;28;20324;-76
2021/12/02 09:33:34;;;;;;;3.15;1.60;;;20.90;99.90;;;;;;4184890;28;20228;-78
2021/12/02 09:35:37;;;;;;;4.45;1.70;;;21.10;99.90;;;;;;4193978;28;20207;-78
2021/12/02 09:37:40;;;;;;;4.15;1.73;;;21.20;99.90;;;;;;4192913;28;20623;-79
2021/12/02 09:39:42;;;;;;;4.72;1.80;;;21.20;99.90;;;;;;4190965;28;20218;-77
2021/12/02 09:41:47;;;;;;;6.38;1.88;;;21.20;99.90;;;;;;4186707;28;20215;-77
2021/12/02 09:43:49;;;;;;;5.28;1.90;;;21.30;99.90;;;;;;4188366;28;20256;-79
2021/12/02 09:45:52;;;;;;;6.10;1.60;;;21.30;99.90;;;;;;4183699;28;20249;-77
2021/12/02 09:47:54;;;;;;;3.70;1.90;;;21.40;99.90;;;;;;4190968;28;20264;-75
2021/12/02 09:50:00;;;;;;;5.85;1.90;;;21.50;99.90;;;;;;4190301;28;20241;-74
2021/12/02 09:52:04;;;;;;;3.08;1.70;;;21.60;99.90;;;;;;4181101;28;20211;-79
2021/12/02 09:54:09;;;;;;;3.85;1.83;;;21.60;99.90;;;;;;4187824;28;20649;-76
2021/12/02 09:56:15;;;;;;;10.30;1.60;;;21.60;99.90;;;;;;4193510;28;20725;-78
2021/12/02 09:58:22;;;;;;;4.93;1.77;;;21.60;99.90;;;;;;4186782;28;20215;-80
2021/12/02 10:00:38;;;;;;;14.05;2.53;;;21.60;99.90;;;;;;4189918;28;20620;-83
2021/12/02 10:02:49;;;;;;;31.55;2.75;;;21.60;99.90;;;;;;4189155;28;20224;-83
2021/12/02 10:04:55;;;;;;;20.05;2.85;;;21.60;99.90;;;;;;4178258;28;20264;-82
2021/12/02 10:07:12;;;;;;;8.68;2.42;;;21.70;99.90;;;;;;4184392;28;20203;-78
2021/12/02 10:09:37;;;;;;;15.60;2.83;;;21.70;99.90;;;;;;4181685;28;20245;-77
2021/12/02 10:11:47;;;;;;;9.18;2.03;;;21.80;99.90;;;;;;4185863;28;20250;-78
2021/12/02 10:14:00;;;;;;;9.88;2.10;;;21.90;99.90;;;;;;4182056;28;20237;-81
2021/12/02 10:16:09;;;;;;;11.77;2.30;;;21.80;99.90;;;;;;4183969;28;20215;-80
2021/12/02 10:18:12;;;;;;;13.07;2.90;;;21.80;99.90;;;;;;4188198;28;20283;-80
2021/12/02 10:20:22;;;;;;;10.52;2.28;;;21.80;99.90;;;;;;4191251;28;20210;-79
2021/12/02 10:22:27;;;;;;;21.77;2.47;;;21.90;99.90;;;;;;4187187;28;20342;-79
2021/12/02 10:24:31;;;;;;;9.60;1.98;;;21.90;99.90;;;;;;4188692;28;20203;-81
2021/12/02 10:26:38;;;;;;;7.95;2.22;;;21.90;99.90;;;;;;4187581;28;20265;-79
2021/12/02 10:28:42;;;;;;;10.82;2.05;;;21.90;99.90;;;;;;4186755;28;20299;-78
2021/12/02 10:30:49;;;;;;;6.22;1.92;;;21.80;99.90;;;;;;4192225;28;20211;-79
2021/12/02 10:32:52;;;;;;;7.65;2.22;;;21.80;99.90;;;;;;4178657;28;20254;-77
2021/12/02 10:34:56;;;;;;;7.75;1.92;;;21.70;99.90;;;;;;4184337;28;20258;-77
2021/12/02 10:37:10;;;;;;;9.23;2.10;;;21.70;99.90;;;;;;4189710;28;20242;-76
2021/12/02 10:39:17;;;;;;;10.75;2.10;;;21.70;99.90;;;;;;4182581;28;20655;-76
2021/12/02 10:41:21;;;;;;;7.78;2.40;;;21.80;99.90;;;;;;4190051;28;20609;-78
2021/12/02 10:43:24;;;;;;;12.82;2.10;;;21.80;99.90;;;;;;4179207;28;20223;-77
2021/12/02 10:45:29;;;;;;;9.52;2.78;;;21.90;99.90;;;;;;4181308;28;20260;-74
2021/12/02 10:47:34;;;;;;;7.10;2.40;;;21.90;99.90;;;;;;4189282;28;20216;-78
2021/12/02 10:49:41;;;;;;;8.15;1.88;;;21.80;99.90;;;;;;4184590;28;20211;-78